sensor_id;sensor_type;location;lat;lon;timestamp;P1;durP1;ratioP1;P2;durP2;ratioP2
70148;SDS011;57514;52.164;5.282;2023-03-01T00:01:02;18.73;;;10.48;;
70148;SDS011;57514;52.164;5.282;2023-03-01T00:03:29;22.80;;;9.60;;
70148;SDS011;57514;52.164;5.282;2023-03-01T00:05:56;18.23;;;9.50;;
70148;SDS011;57514;52.164;5.282;2023-03-01T00:08:24;19.17;;;10.52;;
70148;SDS011;57514;52.164;5.282;2023-03-01T00:11:06;17.55;;;9.70;;
70148;SDS011;57514;52.164;5.282;2023-03-01T00:13:35;18.20;;;7.80;;
70148;SDS011;57514;52.164;5.282;2023-03-01T00:16:06;18.52;;;10.18;;
70148;SDS011;57514;52.164;5.282;2023-03-01T00:18:33;16.17;;;9.32;;
70148;SDS011;57514;52.164;5.282;2023-03-01T00:21:01;16.83;;;8.05;;
70148;SDS011;57514;52.164;5.282;2023-03-01T00:23:28;15.10;;;8.50;;
70148;SDS011;57514;52.164;5.282;2023-03-01T00:25:55;14.68;;;7.53;;
70148;SDS011;57514;52.164;5.282;2023-03-01T00:28:23;14.52;;;7.68;;
70148;SDS011;57514;52.164;5.282;2023-03-01T00:30:50;18.70;;;10.02;;
70148;SDS011;57514;52.164;5.282;2023-03-01T00:33:17;19.45;;;9.15;;
70148;SDS011;57514;52.164;5.282;2023-03-01T00:35:45;18.75;;;8.57;;
70148;SDS011;57514;52.164;5.282;2023-03-01T00:38:13;17.92;;;8.82;;
70148;SDS011;57514;52.164;5.282;2023-03-01T00:40:40;16.63;;;8.52;;
70148;SDS011;57514;52.164;5.282;2023-03-01T00:43:08;17.70;;;8.35;;
70148;SDS011;57514;52.164;5.282;2023-03-01T00:45:36;15.52;;;7.03;;
70148;SDS011;57514;52.164;5.282;2023-03-01T00:48:03;17.17;;;8.93;;
70148;SDS011;57514;52.164;5.282;2023-03-01T00:50:31;18.80;;;8.68;;
70148;SDS011;57514;52.164;5.282;2023-03-01T00:52:58;15.55;;;8.50;;
70148;SDS011;57514;52.164;5.282;2023-03-01T00:55:25;15.88;;;8.38;;
70148;SDS011;57514;52.164;5.282;2023-03-01T00:57:53;12.50;;;6.95;;
70148;SDS011;57514;52.164;5.282;2023-03-01T01:00:20;14.18;;;7.72;;
70148;SDS011;57514;52.164;5.282;2023-03-01T01:02:47;15.55;;;7.93;;
70148;SDS011;57514;52.164;5.282;2023-03-01T01:05:15;18.80;;;9.57;;
70148;SDS011;57514;52.164;5.282;2023-03-01T01:07:47;17.88;;;10.32;;
70148;SDS011;57514;52.164;5.282;2023-03-01T01:10:14;17.70;;;8.35;;
70148;SDS011;57514;52.164;5.282;2023-03-01T01:12:44;15.68;;;8.40;;
70148;SDS011;57514;52.164;5.282;2023-03-01T01:15:11;17.48;;;8.73;;
70148;SDS011;57514;52.164;5.282;2023-03-01T01:17:40;18.95;;;9.80;;
70148;SDS011;57514;52.164;5.282;2023-03-01T01:20:07;17.35;;;9.25;;
70148;SDS011;57514;52.164;5.282;2023-03-01T01:22:35;14.85;;;7.50;;
70148;SDS011;57514;52.164;5.282;2023-03-01T01:25:02;14.50;;;7.63;;
70148;SDS011;57514;52.164;5.282;2023-03-01T01:27:30;19.08;;;8.50;;
70148;SDS011;57514;52.164;5.282;2023-03-01T01:29:57;17.13;;;9.20;;
70148;SDS011;57514;52.164;5.282;2023-03-01T01:32:24;14.18;;;7.32;;
70148;SDS011;57514;52.164;5.282;2023-03-01T01:34:52;16.30;;;7.82;;
70148;SDS011;57514;52.164;5.282;2023-03-01T01:37:20;19.77;;;10.10;;
70148;SDS011;57514;52.164;5.282;2023-03-01T01:39:47;15.80;;;8.90;;
70148;SDS011;57514;52.164;5.282;2023-03-01T01:42:15;20.33;;;9.95;;
70148;SDS011;57514;52.164;5.282;2023-03-01T01:44:42;19.52;;;10.50;;
70148;SDS011;57514;52.164;5.282;2023-03-01T01:47:14;17.33;;;8.93;;
70148;SDS011;57514;52.164;5.282;2023-03-01T01:49:47;16.88;;;9.32;;
70148;SDS011;57514;52.164;5.282;2023-03-01T01:52:34;15.43;;;7.88;;
70148;SDS011;57514;52.164;5.282;2023-03-01T01:55:05;15.77;;;7.78;;
70148;SDS011;57514;52.164;5.282;2023-03-01T01:57:35;19.63;;;8.63;;
70148;SDS011;57514;52.164;5.282;2023-03-01T02:00:11;16.95;;;7.47;;
70148;SDS011;57514;52.164;5.282;2023-03-01T02:02:38;17.80;;;8.70;;
70148;SDS011;57514;52.164;5.282;2023-03-01T02:07:40;18.58;;;8.70;;
70148;SDS011;57514;52.164;5.282;2023-03-01T02:10:09;17.58;;;8.43;;
70148;SDS011;57514;52.164;5.282;2023-03-01T02:12:37;15.60;;;8.75;;
70148;SDS011;57514;52.164;5.282;2023-03-01T02:15:05;16.48;;;8.57;;
70148;SDS011;57514;52.164;5.282;2023-03-01T02:17:32;17.85;;;10.05;;
70148;SDS011;57514;52.164;5.282;2023-03-01T02:22:34;17.70;;;8.52;;
70148;SDS011;57514;52.164;5.282;2023-03-01T02:27:33;16.95;;;9.20;;
70148;SDS011;57514;52.164;5.282;2023-03-01T02:30:02;19.13;;;9.27;;
70148;SDS011;57514;52.164;5.282;2023-03-01T02:32:30;16.90;;;9.18;;
70148;SDS011;57514;52.164;5.282;2023-03-01T02:34:57;14.57;;;8.38;;
70148;SDS011;57514;52.164;5.282;2023-03-01T02:37:24;19.60;;;10.25;;
70148;SDS011;57514;52.164;5.282;2023-03-01T02:39:59;26.17;;;9.88;;
70148;SDS011;57514;52.164;5.282;2023-03-01T02:42:30;21.98;;;10.10;;
70148;SDS011;57514;52.164;5.282;2023-03-01T02:44:58;16.73;;;9.63;;
70148;SDS011;57514;52.164;5.282;2023-03-01T02:47:25;18.73;;;9.50;;
70148;SDS011;57514;52.164;5.282;2023-03-01T02:49:53;16.92;;;9.43;;
70148;SDS011;57514;52.164;5.282;2023-03-01T02:55:04;17.52;;;8.52;;
70148;SDS011;57514;52.164;5.282;2023-03-01T02:57:34;18.08;;;7.38;;
70148;SDS011;57514;52.164;5.282;2023-03-01T03:00:06;20.23;;;8.52;;
70148;SDS011;57514;52.164;5.282;2023-03-01T03:02:36;14.82;;;8.65;;
70148;SDS011;57514;52.164;5.282;2023-03-01T03:05:17;18.38;;;8.77;;
70148;SDS011;57514;52.164;5.282;2023-03-01T03:07:45;21.05;;;10.75;;
70148;SDS011;57514;52.164;5.282;2023-03-01T03:10:14;19.80;;;11.40;;
70148;SDS011;57514;52.164;5.282;2023-03-01T03:12:42;19.35;;;10.55;;
70148;SDS011;57514;52.164;5.282;2023-03-01T03:15:10;19.75;;;10.48;;
70148;SDS011;57514;52.164;5.282;2023-03-01T03:17:39;17.65;;;9.90;;
70148;SDS011;57514;52.164;5.282;2023-03-01T03:20:11;19.70;;;9.48;;
70148;SDS011;57514;52.164;5.282;2023-03-01T03:22:39;15.05;;;8.27;;
70148;SDS011;57514;52.164;5.282;2023-03-01T03:25:07;17.10;;;9.57;;
70148;SDS011;57514;52.164;5.282;2023-03-01T03:27:37;18.33;;;9.63;;
70148;SDS011;57514;52.164;5.282;2023-03-01T03:30:05;22.13;;;10.65;;
70148;SDS011;57514;52.164;5.282;2023-03-01T03:32:35;21.15;;;10.00;;
70148;SDS011;57514;52.164;5.282;2023-03-01T03:35:03;17.95;;;9.23;;
70148;SDS011;57514;52.164;5.282;2023-03-01T03:37:38;19.15;;;8.82;;
70148;SDS011;57514;52.164;5.282;2023-03-01T03:40:25;18.70;;;8.80;;
70148;SDS011;57514;52.164;5.282;2023-03-01T03:42:53;18.90;;;7.30;;
70148;SDS011;57514;52.164;5.282;2023-03-01T03:45:21;18.20;;;8.70;;
70148;SDS011;57514;52.164;5.282;2023-03-01T03:47:48;18.90;;;8.98;;
70148;SDS011;57514;52.164;5.282;2023-03-01T03:50:16;18.65;;;9.60;;
70148;SDS011;57514;52.164;5.282;2023-03-01T03:52:43;18.73;;;9.48;;
70148;SDS011;57514;52.164;5.282;2023-03-01T03:55:11;18.38;;;9.10;;
70148;SDS011;57514;52.164;5.282;2023-03-01T03:57:41;20.45;;;9.80;;
70148;SDS011;57514;52.164;5.282;2023-03-01T04:00:10;21.85;;;10.27;;
70148;SDS011;57514;52.164;5.282;2023-03-01T04:02:41;20.73;;;10.30;;
70148;SDS011;57514;52.164;5.282;2023-03-01T04:05:09;18.10;;;9.45;;
70148;SDS011;57514;52.164;5.282;2023-03-01T04:07:37;19.60;;;9.93;;
70148;SDS011;57514;52.164;5.282;2023-03-01T04:10:05;20.48;;;9.65;;
70148;SDS011;57514;52.164;5.282;2023-03-01T04:12:33;18.73;;;10.02;;
70148;SDS011;57514;52.164;5.282;2023-03-01T04:15:01;21.55;;;11.32;;
70148;SDS011;57514;52.164;5.282;2023-03-01T04:17:29;21.35;;;9.93;;
70148;SDS011;57514;52.164;5.282;2023-03-01T04:19:56;22.27;;;10.63;;
70148;SDS011;57514;52.164;5.282;2023-03-01T04:22:25;20.48;;;10.77;;
70148;SDS011;57514;52.164;5.282;2023-03-01T04:24:55;20.80;;;10.70;;
70148;SDS011;57514;52.164;5.282;2023-03-01T04:27:23;20.20;;;10.02;;
70148;SDS011;57514;52.164;5.282;2023-03-01T04:29:51;18.67;;;9.82;;
70148;SDS011;57514;52.164;5.282;2023-03-01T04:32:18;19.13;;;9.63;;
70148;SDS011;57514;52.164;5.282;2023-03-01T04:34:46;23.65;;;10.18;;
70148;SDS011;57514;52.164;5.282;2023-03-01T04:37:13;19.05;;;10.32;;
70148;SDS011;57514;52.164;5.282;2023-03-01T04:39:42;20.30;;;10.82;;
70148;SDS011;57514;52.164;5.282;2023-03-01T04:42:16;20.48;;;10.57;;
70148;SDS011;57514;52.164;5.282;2023-03-01T04:44:44;20.38;;;10.05;;
70148;SDS011;57514;52.164;5.282;2023-03-01T04:47:11;21.92;;;9.90;;
70148;SDS011;57514;52.164;5.282;2023-03-01T04:49:38;24.08;;;10.88;;
70148;SDS011;57514;52.164;5.282;2023-03-01T04:52:05;20.13;;;9.57;;
70148;SDS011;57514;52.164;5.282;2023-03-01T04:54:33;23.75;;;10.57;;
70148;SDS011;57514;52.164;5.282;2023-03-01T04:57:01;21.60;;;10.13;;
70148;SDS011;57514;52.164;5.282;2023-03-01T04:59:29;21.35;;;10.30;;
70148;SDS011;57514;52.164;5.282;2023-03-01T05:01:56;19.83;;;9.85;;
70148;SDS011;57514;52.164;5.282;2023-03-01T05:04:24;19.65;;;10.02;;
70148;SDS011;57514;52.164;5.282;2023-03-01T05:06:51;21.20;;;9.52;;
70148;SDS011;57514;52.164;5.282;2023-03-01T05:09:19;19.77;;;10.10;;
70148;SDS011;57514;52.164;5.282;2023-03-01T05:11:47;19.42;;;10.02;;
70148;SDS011;57514;52.164;5.282;2023-03-01T05:14:14;19.40;;;9.65;;
70148;SDS011;57514;52.164;5.282;2023-03-01T05:16:41;19.52;;;11.02;;
70148;SDS011;57514;52.164;5.282;2023-03-01T05:19:08;17.80;;;8.93;;
70148;SDS011;57514;52.164;5.282;2023-03-01T05:21:42;24.90;;;10.98;;
70148;SDS011;57514;52.164;5.282;2023-03-01T05:24:42;17.27;;;8.93;;
70148;SDS011;57514;52.164;5.282;2023-03-01T05:27:09;15.95;;;9.05;;
70148;SDS011;57514;52.164;5.282;2023-03-01T05:29:36;20.08;;;8.68;;
70148;SDS011;57514;52.164;5.282;2023-03-01T05:32:05;18.98;;;9.43;;
70148;SDS011;57514;52.164;5.282;2023-03-01T05:34:34;20.13;;;10.15;;
70148;SDS011;57514;52.164;5.282;2023-03-01T05:37:02;21.17;;;9.05;;
70148;SDS011;57514;52.164;5.282;2023-03-01T05:39:29;24.10;;;10.95;;
70148;SDS011;57514;52.164;5.282;2023-03-01T05:41:58;17.95;;;9.73;;
70148;SDS011;57514;52.164;5.282;2023-03-01T05:44:26;20.98;;;10.02;;
70148;SDS011;57514;52.164;5.282;2023-03-01T05:46:53;16.83;;;8.77;;
70148;SDS011;57514;52.164;5.282;2023-03-01T05:49:21;19.85;;;9.27;;
70148;SDS011;57514;52.164;5.282;2023-03-01T05:51:51;19.90;;;9.23;;
70148;SDS011;57514;52.164;5.282;2023-03-01T05:54:20;18.52;;;9.07;;
70148;SDS011;57514;52.164;5.282;2023-03-01T05:56:47;16.80;;;8.63;;
70148;SDS011;57514;52.164;5.282;2023-03-01T05:59:15;16.13;;;8.95;;
70148;SDS011;57514;52.164;5.282;2023-03-01T06:01:42;20.63;;;10.70;;
70148;SDS011;57514;52.164;5.282;2023-03-01T06:04:10;20.50;;;10.40;;
70148;SDS011;57514;52.164;5.282;2023-03-01T06:06:37;19.45;;;10.57;;
70148;SDS011;57514;52.164;5.282;2023-03-01T06:09:05;25.10;;;11.68;;
70148;SDS011;57514;52.164;5.282;2023-03-01T06:11:34;23.30;;;10.48;;
70148;SDS011;57514;52.164;5.282;2023-03-01T06:14:01;20.95;;;9.80;;
70148;SDS011;57514;52.164;5.282;2023-03-01T06:16:28;22.30;;;10.90;;
70148;SDS011;57514;52.164;5.282;2023-03-01T06:18:56;18.30;;;9.70;;
70148;SDS011;57514;52.164;5.282;2023-03-01T06:21:24;19.65;;;10.88;;
70148;SDS011;57514;52.164;5.282;2023-03-01T06:23:51;14.50;;;7.93;;
70148;SDS011;57514;52.164;5.282;2023-03-01T06:26:18;10.00;;;6.53;;
70148;SDS011;57514;52.164;5.282;2023-03-01T06:28:45;13.93;;;7.22;;
70148;SDS011;57514;52.164;5.282;2023-03-01T06:31:12;20.77;;;10.27;;
70148;SDS011;57514;52.164;5.282;2023-03-01T06:33:40;16.40;;;8.40;;
70148;SDS011;57514;52.164;5.282;2023-03-01T06:36:07;24.77;;;12.10;;
70148;SDS011;57514;52.164;5.282;2023-03-01T06:38:35;22.58;;;9.48;;
70148;SDS011;57514;52.164;5.282;2023-03-01T06:41:03;20.63;;;10.82;;
70148;SDS011;57514;52.164;5.282;2023-03-01T06:43:30;21.00;;;11.18;;
70148;SDS011;57514;52.164;5.282;2023-03-01T06:45:57;24.73;;;11.70;;
70148;SDS011;57514;52.164;5.282;2023-03-01T06:48:24;24.98;;;11.63;;
70148;SDS011;57514;52.164;5.282;2023-03-01T06:50:52;26.23;;;10.05;;
70148;SDS011;57514;52.164;5.282;2023-03-01T06:53:19;19.65;;;10.82;;
70148;SDS011;57514;52.164;5.282;2023-03-01T06:55:46;27.40;;;11.85;;
70148;SDS011;57514;52.164;5.282;2023-03-01T06:58:14;27.98;;;10.90;;
70148;SDS011;57514;52.164;5.282;2023-03-01T07:00:41;25.02;;;13.48;;
70148;SDS011;57514;52.164;5.282;2023-03-01T07:03:09;23.80;;;12.75;;
70148;SDS011;57514;52.164;5.282;2023-03-01T07:05:36;24.45;;;12.70;;
70148;SDS011;57514;52.164;5.282;2023-03-01T07:08:04;32.22;;;17.17;;
70148;SDS011;57514;52.164;5.282;2023-03-01T07:10:31;27.77;;;15.02;;
70148;SDS011;57514;52.164;5.282;2023-03-01T07:12:58;29.98;;;15.57;;
70148;SDS011;57514;52.164;5.282;2023-03-01T07:15:26;28.13;;;13.85;;
70148;SDS011;57514;52.164;5.282;2023-03-01T07:17:53;34.80;;;16.70;;
70148;SDS011;57514;52.164;5.282;2023-03-01T07:20:21;32.08;;;16.52;;
70148;SDS011;57514;52.164;5.282;2023-03-01T07:22:54;38.80;;;17.73;;
70148;SDS011;57514;52.164;5.282;2023-03-01T07:25:24;26.10;;;15.15;;
70148;SDS011;57514;52.164;5.282;2023-03-01T07:27:52;33.50;;;16.10;;
70148;SDS011;57514;52.164;5.282;2023-03-01T07:30:20;26.55;;;12.10;;
70148;SDS011;57514;52.164;5.282;2023-03-01T07:32:47;23.35;;;11.38;;
70148;SDS011;57514;52.164;5.282;2023-03-01T07:35:15;26.50;;;14.23;;
70148;SDS011;57514;52.164;5.282;2023-03-01T07:37:42;28.02;;;13.65;;
70148;SDS011;57514;52.164;5.282;2023-03-01T07:40:10;30.45;;;15.20;;
70148;SDS011;57514;52.164;5.282;2023-03-01T07:42:38;26.73;;;14.90;;
70148;SDS011;57514;52.164;5.282;2023-03-01T07:45:05;27.00;;;16.08;;
70148;SDS011;57514;52.164;5.282;2023-03-01T07:47:33;31.60;;;16.80;;
70148;SDS011;57514;52.164;5.282;2023-03-01T07:50:00;26.88;;;15.55;;
70148;SDS011;57514;52.164;5.282;2023-03-01T07:52:28;29.35;;;17.52;;
70148;SDS011;57514;52.164;5.282;2023-03-01T07:54:55;33.80;;;19.65;;
70148;SDS011;57514;52.164;5.282;2023-03-01T07:57:23;36.53;;;15.38;;
70148;SDS011;57514;52.164;5.282;2023-03-01T07:59:50;26.60;;;15.43;;
70148;SDS011;57514;52.164;5.282;2023-03-01T08:02:18;28.20;;;14.80;;
70148;SDS011;57514;52.164;5.282;2023-03-01T08:04:45;25.65;;;15.45;;
70148;SDS011;57514;52.164;5.282;2023-03-01T08:07:12;27.13;;;14.68;;
70148;SDS011;57514;52.164;5.282;2023-03-01T08:09:39;26.58;;;15.27;;
70148;SDS011;57514;52.164;5.282;2023-03-01T08:12:06;26.25;;;15.75;;
70148;SDS011;57514;52.164;5.282;2023-03-01T08:14:34;28.10;;;16.75;;
70148;SDS011;57514;52.164;5.282;2023-03-01T08:17:01;23.90;;;15.68;;
70148;SDS011;57514;52.164;5.282;2023-03-01T08:19:29;26.65;;;16.45;;
70148;SDS011;57514;52.164;5.282;2023-03-01T08:21:57;25.30;;;15.80;;
70148;SDS011;57514;52.164;5.282;2023-03-01T08:24:24;24.92;;;13.35;;
70148;SDS011;57514;52.164;5.282;2023-03-01T08:26:52;23.67;;;13.85;;
70148;SDS011;57514;52.164;5.282;2023-03-01T08:29:19;22.27;;;14.20;;
70148;SDS011;57514;52.164;5.282;2023-03-01T08:31:47;20.17;;;12.85;;
70148;SDS011;57514;52.164;5.282;2023-03-01T08:34:15;21.20;;;13.60;;
70148;SDS011;57514;52.164;5.282;2023-03-01T08:36:43;21.02;;;13.43;;
70148;SDS011;57514;52.164;5.282;2023-03-01T08:39:12;24.70;;;14.13;;
70148;SDS011;57514;52.164;5.282;2023-03-01T08:41:40;20.05;;;13.10;;
70148;SDS011;57514;52.164;5.282;2023-03-01T08:44:08;20.08;;;13.25;;
70148;SDS011;57514;52.164;5.282;2023-03-01T08:46:40;20.02;;;12.88;;
70148;SDS011;57514;52.164;5.282;2023-03-01T08:49:08;19.30;;;13.18;;
70148;SDS011;57514;52.164;5.282;2023-03-01T08:51:36;19.98;;;13.70;;
70148;SDS011;57514;52.164;5.282;2023-03-01T08:54:04;21.48;;;13.52;;
70148;SDS011;57514;52.164;5.282;2023-03-01T08:56:37;24.92;;;14.07;;
70148;SDS011;57514;52.164;5.282;2023-03-01T08:59:04;19.88;;;12.70;;
70148;SDS011;57514;52.164;5.282;2023-03-01T09:01:32;19.20;;;12.93;;
70148;SDS011;57514;52.164;5.282;2023-03-01T09:03:59;18.38;;;12.88;;
70148;SDS011;57514;52.164;5.282;2023-03-01T09:06:27;20.20;;;12.73;;
70148;SDS011;57514;52.164;5.282;2023-03-01T09:08:57;17.88;;;12.60;;
70148;SDS011;57514;52.164;5.282;2023-03-01T09:11:24;17.23;;;12.07;;
70148;SDS011;57514;52.164;5.282;2023-03-01T09:13:52;16.60;;;11.52;;
70148;SDS011;57514;52.164;5.282;2023-03-01T09:16:20;16.85;;;12.15;;
70148;SDS011;57514;52.164;5.282;2023-03-01T09:18:49;15.90;;;10.73;;
70148;SDS011;57514;52.164;5.282;2023-03-01T09:21:17;16.10;;;11.80;;
70148;SDS011;57514;52.164;5.282;2023-03-01T09:24:02;19.42;;;11.20;;
70148;SDS011;57514;52.164;5.282;2023-03-01T09:26:29;17.83;;;11.75;;
70148;SDS011;57514;52.164;5.282;2023-03-01T09:28:57;17.33;;;11.07;;
70148;SDS011;57514;52.164;5.282;2023-03-01T09:31:25;17.85;;;10.80;;
70148;SDS011;57514;52.164;5.282;2023-03-01T09:33:53;17.25;;;10.30;;
70148;SDS011;57514;52.164;5.282;2023-03-01T09:36:22;16.17;;;10.73;;
70148;SDS011;57514;52.164;5.282;2023-03-01T09:38:49;17.52;;;11.15;;
70148;SDS011;57514;52.164;5.282;2023-03-01T09:43:48;19.05;;;10.13;;
70148;SDS011;57514;52.164;5.282;2023-03-01T09:46:22;16.80;;;9.73;;
70148;SDS011;57514;52.164;5.282;2023-03-01T09:49:12;16.83;;;9.93;;
70148;SDS011;57514;52.164;5.282;2023-03-01T09:51:37;17.80;;;10.93;;
70148;SDS011;57514;52.164;5.282;2023-03-01T09:54:05;16.20;;;10.85;;
70148;SDS011;57514;52.164;5.282;2023-03-01T09:59:07;17.40;;;10.20;;
70148;SDS011;57514;52.164;5.282;2023-03-01T10:07:12;16.05;;;9.40;;
70148;SDS011;57514;52.164;5.282;2023-03-01T10:09:43;17.70;;;10.02;;
70148;SDS011;57514;52.164;5.282;2023-03-01T10:12:19;14.05;;;7.75;;
70148;SDS011;57514;52.164;5.282;2023-03-01T10:15:04;13.95;;;7.53;;
70148;SDS011;57514;52.164;5.282;2023-03-01T10:17:46;16.40;;;8.82;;
70148;SDS011;57514;52.164;5.282;2023-03-01T10:20:40;18.02;;;7.45;;
70148;SDS011;57514;52.164;5.282;2023-03-01T10:23:12;11.98;;;7.28;;
70148;SDS011;57514;52.164;5.282;2023-03-01T10:29:21;12.82;;;6.13;;
70148;SDS011;57514;52.164;5.282;2023-03-01T10:32:04;28.98;;;8.13;;
70148;SDS011;57514;52.164;5.282;2023-03-01T10:34:31;10.93;;;6.00;;
70148;SDS011;57514;52.164;5.282;2023-03-01T10:37:04;11.23;;;6.65;;
70148;SDS011;57514;52.164;5.282;2023-03-01T10:39:35;10.77;;;5.20;;
70148;SDS011;57514;52.164;5.282;2023-03-01T10:42:03;11.13;;;6.07;;
70148;SDS011;57514;52.164;5.282;2023-03-01T10:44:45;12.15;;;5.80;;
70148;SDS011;57514;52.164;5.282;2023-03-01T10:47:15;10.57;;;5.43;;
70148;SDS011;57514;52.164;5.282;2023-03-01T10:49:58;12.20;;;5.82;;
70148;SDS011;57514;52.164;5.282;2023-03-01T10:52:29;11.23;;;5.95;;
70148;SDS011;57514;52.164;5.282;2023-03-01T10:57:39;16.13;;;6.38;;
70148;SDS011;57514;52.164;5.282;2023-03-01T11:03:11;9.98;;;5.65;;
70148;SDS011;57514;52.164;5.282;2023-03-01T11:06:19;12.18;;;6.78;;
70148;SDS011;57514;52.164;5.282;2023-03-01T11:08:48;10.45;;;4.93;;
70148;SDS011;57514;52.164;5.282;2023-03-01T11:11:23;10.15;;;5.40;;
70148;SDS011;57514;52.164;5.282;2023-03-01T11:17:00;10.18;;;4.68;;
70148;SDS011;57514;52.164;5.282;2023-03-01T11:19:28;8.52;;;4.03;;
70148;SDS011;57514;52.164;5.282;2023-03-01T11:22:03;12.93;;;3.88;;
70148;SDS011;57514;52.164;5.282;2023-03-01T11:24:39;10.77;;;4.90;;
70148;SDS011;57514;52.164;5.282;2023-03-01T11:27:19;10.73;;;4.82;;
70148;SDS011;57514;52.164;5.282;2023-03-01T11:29:52;9.07;;;4.53;;
70148;SDS011;57514;52.164;5.282;2023-03-01T11:32:27;11.88;;;5.30;;
70148;SDS011;57514;52.164;5.282;2023-03-01T11:37:33;9.50;;;4.65;;
70148;SDS011;57514;52.164;5.282;2023-03-01T11:40:11;8.55;;;4.07;;
70148;SDS011;57514;52.164;5.282;2023-03-01T11:42:46;8.80;;;4.10;;
70148;SDS011;57514;52.164;5.282;2023-03-01T11:45:43;8.25;;;4.13;;
70148;SDS011;57514;52.164;5.282;2023-03-01T11:59:59;8.88;;;4.15;;
70148;SDS011;57514;52.164;5.282;2023-03-01T12:10:42;8.75;;;4.28;;
70148;SDS011;57514;52.164;5.282;2023-03-01T12:13:23;7.82;;;3.90;;
70148;SDS011;57514;52.164;5.282;2023-03-01T12:16:13;9.50;;;4.70;;
70148;SDS011;57514;52.164;5.282;2023-03-01T12:24:51;8.50;;;4.35;;
70148;SDS011;57514;52.164;5.282;2023-03-01T12:27:36;8.38;;;4.22;;
70148;SDS011;57514;52.164;5.282;2023-03-01T12:35:27;10.40;;;4.88;;
70148;SDS011;57514;52.164;5.282;2023-03-01T12:44:03;8.32;;;4.10;;
70148;SDS011;57514;52.164;5.282;2023-03-01T12:52:13;7.53;;;3.70;;
70148;SDS011;57514;52.164;5.282;2023-03-01T12:55:00;8.07;;;4.35;;
70148;SDS011;57514;52.164;5.282;2023-03-01T12:57:42;9.65;;;5.10;;
70148;SDS011;57514;52.164;5.282;2023-03-01T13:00:30;9.32;;;4.68;;
70148;SDS011;57514;52.164;5.282;2023-03-01T13:03:00;8.85;;;4.25;;
70148;SDS011;57514;52.164;5.282;2023-03-01T13:11:16;8.13;;;4.40;;
70148;SDS011;57514;52.164;5.282;2023-03-01T13:13:46;8.15;;;4.47;;
70148;SDS011;57514;52.164;5.282;2023-03-01T13:16:27;7.63;;;3.22;;
70148;SDS011;57514;52.164;5.282;2023-03-01T13:19:23;7.45;;;3.90;;
70148;SDS011;57514;52.164;5.282;2023-03-01T13:21:51;7.05;;;3.70;;
70148;SDS011;57514;52.164;5.282;2023-03-01T13:24:35;10.60;;;4.32;;
70148;SDS011;57514;52.164;5.282;2023-03-01T13:29:51;8.13;;;4.10;;
70148;SDS011;57514;52.164;5.282;2023-03-01T13:32:23;7.18;;;3.88;;
70148;SDS011;57514;52.164;5.282;2023-03-01T13:37:45;7.75;;;3.97;;
70148;SDS011;57514;52.164;5.282;2023-03-01T13:42:49;9.05;;;4.68;;
70148;SDS011;57514;52.164;5.282;2023-03-01T13:47:58;9.40;;;4.65;;
70148;SDS011;57514;52.164;5.282;2023-03-01T13:50:28;9.82;;;4.53;;
70148;SDS011;57514;52.164;5.282;2023-03-01T13:52:58;9.30;;;4.43;;
70148;SDS011;57514;52.164;5.282;2023-03-01T13:55:31;8.95;;;4.20;;
70148;SDS011;57514;52.164;5.282;2023-03-01T13:58:03;13.07;;;6.53;;
70148;SDS011;57514;52.164;5.282;2023-03-01T14:00:33;9.70;;;5.25;;
70148;SDS011;57514;52.164;5.282;2023-03-01T14:08:04;9.32;;;4.63;;
70148;SDS011;57514;52.164;5.282;2023-03-01T14:10:35;9.07;;;4.32;;
70148;SDS011;57514;52.164;5.282;2023-03-01T14:15:49;8.98;;;4.07;;
70148;SDS011;57514;52.164;5.282;2023-03-01T14:18:29;8.30;;;4.38;;
70148;SDS011;57514;52.164;5.282;2023-03-01T14:20:57;8.10;;;3.80;;
70148;SDS011;57514;52.164;5.282;2023-03-01T14:23:25;9.38;;;4.70;;
70148;SDS011;57514;52.164;5.282;2023-03-01T14:25:54;5.45;;;3.08;;
70148;SDS011;57514;52.164;5.282;2023-03-01T14:28:23;9.00;;;4.28;;
70148;SDS011;57514;52.164;5.282;2023-03-01T14:30:53;7.60;;;4.15;;
70148;SDS011;57514;52.164;5.282;2023-03-01T14:33:23;9.68;;;4.40;;
70148;SDS011;57514;52.164;5.282;2023-03-01T14:35:57;8.38;;;3.90;;
70148;SDS011;57514;52.164;5.282;2023-03-01T14:38:29;8.32;;;4.03;;
70148;SDS011;57514;52.164;5.282;2023-03-01T14:40:57;8.05;;;4.30;;
70148;SDS011;57514;52.164;5.282;2023-03-01T14:43:25;9.63;;;4.32;;
70148;SDS011;57514;52.164;5.282;2023-03-01T14:45:53;8.43;;;3.90;;
70148;SDS011;57514;52.164;5.282;2023-03-01T14:48:20;9.48;;;3.85;;
70148;SDS011;57514;52.164;5.282;2023-03-01T14:50:48;9.50;;;4.63;;
70148;SDS011;57514;52.164;5.282;2023-03-01T14:53:18;10.35;;;5.13;;
70148;SDS011;57514;52.164;5.282;2023-03-01T14:55:47;9.18;;;4.45;;
70148;SDS011;57514;52.164;5.282;2023-03-01T14:58:18;10.77;;;4.57;;
70148;SDS011;57514;52.164;5.282;2023-03-01T15:00:50;9.02;;;5.38;;
70148;SDS011;57514;52.164;5.282;2023-03-01T15:03:30;9.27;;;4.40;;
70148;SDS011;57514;52.164;5.282;2023-03-01T15:05:58;8.45;;;4.05;;
70148;SDS011;57514;52.164;5.282;2023-03-01T15:08:28;8.70;;;4.78;;
70148;SDS011;57514;52.164;5.282;2023-03-01T15:13:30;8.38;;;3.45;;
70148;SDS011;57514;52.164;5.282;2023-03-01T15:16:05;8.43;;;4.68;;
70148;SDS011;57514;52.164;5.282;2023-03-01T15:21:06;7.85;;;4.28;;
70148;SDS011;57514;52.164;5.282;2023-03-01T15:23:34;9.07;;;4.43;;
70148;SDS011;57514;52.164;5.282;2023-03-01T15:26:03;10.18;;;4.60;;
70148;SDS011;57514;52.164;5.282;2023-03-01T15:28:31;8.20;;;3.85;;
70148;SDS011;57514;52.164;5.282;2023-03-01T15:31:18;9.07;;;3.97;;
70148;SDS011;57514;52.164;5.282;2023-03-01T15:33:45;9.32;;;4.80;;
70148;SDS011;57514;52.164;5.282;2023-03-01T15:38:59;10.38;;;5.28;;
70148;SDS011;57514;52.164;5.282;2023-03-01T15:41:31;10.32;;;4.55;;
70148;SDS011;57514;52.164;5.282;2023-03-01T15:43:59;10.10;;;5.45;;
70148;SDS011;57514;52.164;5.282;2023-03-01T15:46:28;11.77;;;4.95;;
70148;SDS011;57514;52.164;5.282;2023-03-01T15:48:59;9.13;;;4.10;;
70148;SDS011;57514;52.164;5.282;2023-03-01T15:51:29;9.07;;;4.75;;
70148;SDS011;57514;52.164;5.282;2023-03-01T15:53:57;8.77;;;4.20;;
70148;SDS011;57514;52.164;5.282;2023-03-01T15:56:25;10.70;;;4.28;;
70148;SDS011;57514;52.164;5.282;2023-03-01T15:58:53;9.23;;;3.80;;
70148;SDS011;57514;52.164;5.282;2023-03-01T16:01:23;10.15;;;4.78;;
70148;SDS011;57514;52.164;5.282;2023-03-01T16:03:51;11.05;;;5.88;;
70148;SDS011;57514;52.164;5.282;2023-03-01T16:06:20;8.30;;;4.03;;
70148;SDS011;57514;52.164;5.282;2023-03-01T16:08:47;8.73;;;4.57;;
70148;SDS011;57514;52.164;5.282;2023-03-01T16:11:16;11.07;;;4.63;;
70148;SDS011;57514;52.164;5.282;2023-03-01T16:13:44;12.38;;;5.32;;
70148;SDS011;57514;52.164;5.282;2023-03-01T16:16:12;10.50;;;4.97;;
70148;SDS011;57514;52.164;5.282;2023-03-01T16:18:43;11.13;;;6.18;;
70148;SDS011;57514;52.164;5.282;2023-03-01T16:21:14;11.32;;;5.68;;
70148;SDS011;57514;52.164;5.282;2023-03-01T16:23:43;10.88;;;5.22;;
70148;SDS011;57514;52.164;5.282;2023-03-01T16:26:11;11.70;;;5.68;;
70148;SDS011;57514;52.164;5.282;2023-03-01T16:28:40;10.00;;;5.00;;
70148;SDS011;57514;52.164;5.282;2023-03-01T16:31:07;11.20;;;5.30;;
70148;SDS011;57514;52.164;5.282;2023-03-01T16:33:35;12.60;;;6.05;;
70148;SDS011;57514;52.164;5.282;2023-03-01T16:36:07;10.82;;;5.15;;
70148;SDS011;57514;52.164;5.282;2023-03-01T16:38:34;11.55;;;5.80;;
70148;SDS011;57514;52.164;5.282;2023-03-01T16:41:02;10.30;;;5.35;;